Date,TemperatureHighF,TemperatureAvgF,TemperatureLowF,DewpointHighF,DewpointAvgF,DewpointLowF,HumidityHigh,HumidityAvg,HumidityLow,PressureMaxIn,PressureMinIn,WindSpeedMaxMPH,WindSpeedAvgMPH,GustSpeedMaxMPH,PrecipitationSumIn
2013-1-1,48,44,40,39,33,31,75,67,60,29.81,29.67,8,1,8,0.00
2013-1-2,41,35,28,32,24,18,79,65,49,30.03,29.77,6,1,6,0.00
2013-1-3,37,30,24,22,20,17,81,65,48,30.05,29.94,4,0,4,0.00
2013-1-4,44,32,21,29,23,17,89,70,47,30.01,29.89,10,2,10,0.00
2013-1-5,45,36,30,29,24,20,76,63,49,30.17,29.95,8,1,8,0.00
2013-1-6,51,41,35,39,32,27,87,71,51,30.05,29.83,7,1,7,0.00
2013-1-7,50,40,28,33,29,23,81,68,48,30.25,29.91,7,1,7,0.00
2013-1-8,56,39,26,40,31,22,91,74,51,30.27,30.17,8,1,8,0.00
2013-1-9,63,52,40,51,45,35,86,76,65,30.19,30.02,9,1,9,0.00
2013-1-10,52,45,37,43,32,29,79,61,44,30.37,30.15,7,1,7,0.00
2013-1-11,54,45,33,52,40,28,92,84,73,30.30,29.87,6,1,6,0.12
2013-1-12,61,49,44,54,46,42,94,89,76,29.96,29.88,6,1,6,0.00
2013-1-13,60,51,43,56,48,41,94,91,85,29.95,29.81,4,1,4,0.00
2013-1-14,65,57,46,61,54,43,95,89,82,30.03,29.79,8,2,8,0.24
2013-1-15,46,42,39,43,40,37,94,93,89,30.11,29.92,7,1,7,0.83
2013-1-16,46,41,38,44,40,36,95,94,91,29.91,29.67,8,1,8,0.44
2013-1-17,44,42,34,42,40,32,95,93,87,29.93,29.75,2,0,2,0.77
2013-1-18,38,33,24,32,25,19,94,74,48,30.32,29.84,4,1,4,0.14
2013-1-19,50,38,24,36,30,20,86,72,55,30.28,29.84,11,2,11,0.05
2013-1-20,58,47,37,39,32,19,73,57,38,29.86,29.63,14,3,14,0.00
2013-1-21,48,36,26,36,25,18,87,66,48,29.91,29.54,10,1,10,0.00
2013-1-22,31,25,18,25,6,0,79,47,35,30.09,29.70,12,3,12,0.00
2013-1-23,28,22,15,9,5,2,59,49,37,30.14,29.97,10,1,10,0.00
2013-1-24,28,21,13,16,10,2,87,62,42,30.30,29.86,9,2,9,0.04
2013-1-25,28,21,11,19,13,3,83,70,54,30.30,29.87,4,0,4,0.00
2013-1-26,36,26,16,21,17,11,86,71,50,30.23,29.87,8,1,8,0.09
2013-1-27,38,26,15,22,16,10,83,67,49,30.40,30.22,5,0,5,0.02
2013-1-28,46,36,22,42,31,16,86,81,75,30.33,29.87,8,1,8,0.06
2013-1-29,69,52,40,56,46,37,92,80,62,29.94,29.86,8,1,8,0.00
2013-1-30,73,62,49,62,57,46,92,83,69,29.85,29.22,11,4,11,0.00
2013-1-31,66,50,31,61,35,17,91,59,36,29.73,29.01,19,5,19,0.27